createdAt,value
2022-10-15T00:01:32.738Z,11.07
2022-10-15T00:06:30.006Z,11.08
2022-10-15T00:08:56.981Z,11.09
2022-10-15T00:11:28.312Z,11.08
2022-10-15T00:13:59.952Z,11.07
2022-10-15T00:16:29.878Z,11.06
2022-10-15T00:18:59.893Z,11.08
2022-10-15T00:21:27.667Z,11.09
2022-10-15T00:23:55.317Z,11.09
2022-10-15T00:26:29.851Z,11.08
2022-10-15T00:29:04.178Z,11.06
2022-10-15T00:31:33.013Z,11.06
2022-10-15T00:34:03.284Z,11.06
2022-10-15T00:36:36.129Z,11.07
2022-10-15T00:39:06.904Z,11.07
2022-10-15T00:41:41.802Z,11.04
2022-10-15T00:44:29.173Z,11.03
2022-10-15T00:47:35.607Z,11.05
2022-10-15T00:50:18.621Z,11.07
2022-10-15T00:53:06.481Z,11.08
2022-10-15T00:55:40.746Z,11.06
2022-10-15T00:58:28.546Z,11.09
2022-10-15T01:00:56.601Z,11.10
2022-10-15T01:03:24.589Z,11.12
2022-10-15T01:05:53.714Z,11.14
2022-10-15T01:08:21.014Z,11.15
2022-10-15T01:11:17.855Z,11.17
2022-10-15T01:14:23.026Z,11.18
2022-10-15T01:17:29.216Z,11.18
2022-10-15T01:20:44.341Z,11.18
2022-10-15T01:23:49.269Z,11.21
2022-10-15T01:26:42.178Z,11.26
2022-10-15T01:29:49.990Z,11.29
2022-10-15T01:32:29.872Z,11.33
2022-10-15T01:35:28.959Z,11.37
2022-10-15T01:38:45.798Z,11.36
2022-10-15T01:41:50.558Z,11.36
2022-10-15T01:44:36.391Z,11.35
2022-10-15T01:47:48.669Z,11.34
2022-10-15T01:50:25.249Z,11.37
2022-10-15T01:52:59.005Z,11.36
2022-10-15T01:55:29.050Z,11.41
2022-10-15T01:58:01.774Z,11.42
2022-10-15T02:00:28.798Z,11.39
2022-10-15T02:03:04.706Z,11.43
2022-10-15T02:06:06.285Z,11.38
2022-10-15T02:08:52.726Z,11.38
2022-10-15T02:11:20.457Z,11.41
2022-10-15T02:14:34.666Z,11.41
2022-10-15T02:17:12.175Z,11.37
2022-10-15T02:20:17.014Z,11.35
2022-10-15T02:23:36.340Z,11.33
2022-10-15T02:26:09.966Z,11.32
2022-10-15T02:28:45.198Z,11.33
2022-10-15T02:31:20.290Z,11.32
2022-10-15T02:33:53.911Z,11.34
2022-10-15T02:36:22.093Z,11.36
2022-10-15T02:38:55.973Z,11.39
2022-10-15T02:41:23.916Z,11.40
2022-10-15T02:43:50.989Z,11.38
2022-10-15T02:46:21.303Z,11.36
2022-10-15T02:48:48.368Z,11.36
2022-10-15T02:51:15.415Z,11.33
2022-10-15T02:53:42.442Z,11.33
2022-10-15T02:56:09.444Z,11.33
2022-10-15T02:58:36.589Z,11.32
2022-10-15T03:01:05.454Z,11.31
2022-10-15T03:03:32.695Z,11.28
2022-10-15T03:06:00.149Z,11.27
2022-10-15T03:08:27.362Z,11.27
2022-10-15T03:10:54.338Z,11.24
2022-10-15T03:13:21.456Z,11.18
2022-10-15T03:15:48.474Z,11.17
2022-10-15T03:18:15.608Z,11.15
2022-10-15T03:20:42.970Z,11.13
2022-10-15T03:23:10.004Z,11.09
2022-10-15T03:25:37.079Z,11.06
2022-10-15T03:28:04.571Z,11.08
2022-10-15T03:30:31.602Z,11.07
2022-10-15T03:32:58.724Z,11.02
2022-10-15T03:35:25.778Z,11.00
2022-10-15T03:37:52.900Z,11.06
2022-10-15T03:40:19.860Z,11.09
2022-10-15T03:42:52.434Z,11.06
2022-10-15T03:45:20.721Z,11.02
2022-10-15T03:47:47.656Z,10.94
2022-10-15T03:50:15.793Z,10.88
2022-10-15T03:52:43.629Z,10.80
2022-10-15T03:55:12.005Z,10.74
2022-10-15T03:57:39.693Z,10.66
2022-10-15T04:00:09.522Z,10.56
2022-10-15T04:02:36.546Z,10.54
2022-10-15T04:05:04.008Z,10.47
2022-10-15T04:07:31.001Z,10.45
2022-10-15T04:09:57.954Z,10.49
2022-10-15T04:12:25.650Z,10.49
2022-10-15T04:14:52.839Z,10.47
2022-10-15T04:17:19.894Z,10.45
2022-10-15T04:19:47.018Z,10.39
2022-10-15T04:22:13.968Z,10.38
2022-10-15T04:24:40.971Z,10.32
2022-10-15T04:27:08.102Z,10.31
2022-10-15T04:29:35.250Z,10.31
2022-10-15T04:32:02.413Z,10.31
2022-10-15T04:34:29.596Z,10.30
2022-10-15T04:36:56.708Z,10.29
2022-10-15T04:39:23.855Z,10.27
2022-10-15T04:41:50.910Z,10.25
2022-10-15T04:44:17.959Z,10.26
2022-10-15T04:46:44.886Z,10.24
2022-10-15T04:49:12.027Z,10.21
2022-10-15T04:51:39.617Z,10.20
2022-10-15T04:54:06.638Z,10.20
2022-10-15T04:56:33.625Z,10.21
2022-10-15T04:59:00.730Z,10.20
2022-10-15T05:01:27.947Z,10.17
2022-10-15T05:03:54.957Z,10.13
2022-10-15T05:06:23.109Z,10.10
2022-10-15T05:08:51.914Z,10.05
2022-10-15T05:11:26.989Z,10.04
2022-10-15T05:13:57.912Z,10.03
2022-10-15T05:16:29.675Z,9.96
2022-10-15T05:19:05.640Z,9.90
2022-10-15T05:21:35.927Z,9.86
2022-10-15T05:24:04.125Z,9.77
2022-10-15T05:26:32.701Z,9.71
2022-10-15T05:29:01.185Z,9.70
2022-10-15T05:31:32.694Z,9.68
2022-10-15T05:33:59.862Z,9.66
2022-10-15T05:36:29.913Z,9.65
2022-10-15T05:39:02.122Z,9.66
2022-10-15T05:41:30.976Z,9.63
2022-10-15T05:43:59.425Z,9.65
2022-10-15T05:46:27.941Z,9.68
2022-10-15T05:48:59.682Z,9.72
2022-10-15T05:51:28.907Z,9.77
2022-10-15T05:53:58.308Z,9.83
2022-10-15T05:56:27.930Z,9.89
2022-10-15T05:58:55.924Z,9.94
2022-10-15T06:01:23.168Z,9.99
2022-10-15T06:03:50.064Z,10.03
2022-10-15T06:06:22.937Z,10.09
2022-10-15T06:08:51.292Z,10.17
2022-10-15T06:11:18.733Z,10.21
2022-10-15T06:13:47.360Z,10.25
2022-10-15T06:16:21.122Z,10.29
2022-10-15T06:18:53.821Z,10.34
2022-10-15T06:21:21.746Z,10.36
2022-10-15T06:23:48.919Z,10.37
2022-10-15T06:26:16.507Z,10.39
2022-10-15T06:28:43.526Z,10.44
2022-10-15T06:31:10.800Z,10.45
2022-10-15T06:33:37.850Z,10.49
2022-10-15T06:36:11.327Z,10.59
2022-10-15T06:38:39.535Z,10.67
2022-10-15T06:41:10.210Z,10.79
2022-10-15T06:43:37.218Z,10.99
2022-10-15T06:46:06.626Z,11.16
2022-10-15T06:48:34.583Z,11.34
2022-10-15T06:51:02.564Z,11.44
2022-10-15T06:53:31.757Z,11.53
2022-10-15T06:56:02.727Z,11.61
2022-10-15T06:58:30.591Z,11.84
2022-10-15T07:01:06.766Z,12.12
2022-10-15T07:03:33.831Z,12.26
2022-10-15T07:06:08.708Z,12.37
2022-10-15T07:08:37.459Z,12.55
2022-10-15T07:11:09.387Z,12.66
2022-10-15T07:13:37.588Z,12.80
2022-10-15T07:16:12.440Z,12.87
2022-10-15T07:18:40.661Z,12.93
2022-10-15T07:23:57.424Z,12.82
2022-10-15T07:26:25.088Z,12.93
2022-10-15T07:28:52.210Z,13.20
2022-10-15T07:31:19.182Z,13.31
2022-10-15T07:33:46.170Z,13.21
2022-10-15T07:36:13.190Z,13.06
2022-10-15T07:38:40.705Z,12.97
2022-10-15T07:41:10.832Z,13.12
2022-10-15T07:43:39.070Z,13.18
2022-10-15T07:46:06.563Z,13.22
2022-10-15T07:48:33.869Z,13.20
2022-10-15T07:51:07.161Z,13.23
2022-10-15T07:53:35.627Z,13.24
2022-10-15T07:56:08.353Z,13.18
2022-10-15T07:58:38.094Z,13.08
2022-10-15T08:01:11.071Z,13.12
2022-10-15T08:03:39.157Z,13.14
2022-10-15T08:06:08.350Z,13.05
2022-10-15T08:08:38.129Z,13.01
2022-10-15T08:11:15.853Z,13.12
2022-10-15T08:13:46.957Z,13.32
2022-10-15T08:16:16.858Z,13.50
2022-10-15T08:18:44.912Z,13.75
2022-10-15T08:21:13.296Z,13.92
2022-10-15T08:23:40.379Z,14.08
2022-10-15T08:26:07.636Z,14.20
2022-10-15T08:28:36.562Z,14.34
2022-10-15T08:31:06.109Z,14.06
2022-10-15T08:33:38.409Z,14.12
2022-10-15T08:36:08.842Z,14.31
2022-10-15T08:38:36.049Z,14.75
2022-10-15T08:41:35.202Z,15.11
2022-10-15T08:44:04.167Z,15.29
2022-10-15T08:46:46.650Z,15.31
2022-10-15T08:49:39.317Z,15.23
2022-10-15T08:52:42.579Z,15.20
2022-10-15T08:55:39.380Z,14.72
2022-10-15T08:58:30.550Z,14.79
2022-10-15T09:01:23.477Z,14.59
2022-10-15T09:04:37.754Z,14.58
2022-10-15T09:07:34.269Z,14.65
2022-10-15T09:10:49.778Z,14.68
2022-10-15T09:13:37.762Z,14.79
2022-10-15T09:16:39.190Z,14.89
2022-10-15T09:19:19.542Z,15.11
2022-10-15T09:21:51.951Z,15.29
2022-10-15T09:24:25.701Z,15.39
2022-10-15T09:27:22.929Z,15.24
2022-10-15T09:30:11.533Z,14.95
2022-10-15T09:33:18.038Z,15.13
2022-10-15T09:36:15.554Z,15.43
2022-10-15T09:39:06.482Z,15.55
2022-10-15T09:42:07.414Z,15.49
2022-10-15T09:44:43.998Z,15.56
2022-10-15T09:47:34.060Z,15.71
2022-10-15T09:50:08.233Z,15.59
2022-10-15T09:53:39.912Z,15.47
2022-10-15T09:56:24.291Z,15.50
2022-10-15T09:58:57.994Z,15.59
2022-10-15T10:01:33.978Z,15.65
2022-10-15T10:04:13.732Z,15.77
2022-10-15T10:06:55.546Z,15.88
2022-10-15T10:09:36.047Z,15.91
2022-10-15T10:12:25.439Z,16.10
2022-10-15T10:15:09.902Z,16.17
2022-10-15T10:17:37.017Z,16.41
2022-10-15T10:20:10.190Z,16.37
2022-10-15T10:22:54.463Z,16.43
2022-10-15T10:25:31.251Z,16.45
2022-10-15T10:28:11.710Z,16.55
2022-10-15T10:30:56.981Z,16.53
2022-10-15T10:33:41.914Z,16.49
2022-10-15T10:36:30.924Z,16.65
2022-10-15T10:39:15.440Z,16.65
2022-10-15T10:42:00.683Z,16.60
2022-10-15T10:44:46.491Z,16.72
2022-10-15T10:47:22.622Z,16.94
2022-10-15T10:49:51.120Z,16.92
2022-10-15T10:52:37.696Z,17.17
2022-10-15T10:55:27.611Z,17.20
2022-10-15T10:58:02.454Z,16.89
2022-10-15T11:00:52.652Z,16.72
2022-10-15T11:03:41.980Z,16.78
2022-10-15T11:06:32.998Z,16.86
2022-10-15T11:09:56.446Z,16.83
2022-10-15T11:12:38.308Z,16.98
2022-10-15T11:15:44.649Z,16.89
2022-10-15T11:19:19.101Z,16.97
2022-10-15T11:22:44.225Z,16.98
2022-10-15T11:25:41.900Z,17.09
2022-10-15T11:29:34.105Z,16.89
2022-10-15T11:32:54.440Z,17.11
2022-10-15T11:35:53.223Z,17.23
2022-10-15T11:38:48.312Z,17.23
2022-10-15T11:41:53.570Z,17.24
2022-10-15T11:45:02.050Z,17.03
2022-10-15T11:48:18.592Z,16.61
2022-10-15T11:51:05.959Z,16.42
2022-10-15T11:53:57.539Z,16.27
2022-10-15T11:56:39.057Z,16.44
2022-10-15T11:59:45.660Z,16.76
2022-10-15T12:02:34.961Z,17.04
2022-10-15T12:05:16.593Z,17.08
2022-10-15T12:07:50.470Z,17.41
2022-10-15T12:10:56.175Z,17.25
2022-10-15T12:13:48.788Z,17.16
2022-10-15T12:16:48.403Z,17.08
2022-10-15T12:19:26.986Z,16.95
2022-10-15T12:21:56.594Z,16.94
2022-10-15T12:24:38.433Z,17.04
2022-10-15T12:27:25.809Z,17.02
2022-10-15T12:30:21.071Z,16.86
2022-10-15T12:32:49.851Z,16.91
2022-10-15T12:35:16.800Z,16.83
2022-10-15T12:37:49.656Z,16.76
2022-10-15T12:40:22.300Z,16.72
2022-10-15T12:43:16.353Z,16.75
2022-10-15T12:46:00.998Z,16.83
2022-10-15T12:48:41.522Z,16.88
2022-10-15T12:51:17.207Z,16.92
2022-10-15T12:53:48.642Z,16.95
2022-10-15T12:56:18.297Z,16.96
2022-10-15T12:58:56.568Z,16.93
2022-10-15T13:01:23.450Z,16.93
2022-10-15T13:03:50.504Z,16.99
2022-10-15T13:06:20.630Z,17.08
2022-10-15T13:09:14.501Z,16.91
2022-10-15T13:11:59.594Z,17.02
2022-10-15T13:14:55.193Z,17.04
2022-10-15T13:17:23.458Z,17.08
2022-10-15T13:20:08.421Z,17.11
2022-10-15T13:22:37.393Z,17.13
2022-10-15T13:25:15.354Z,17.08
2022-10-15T13:27:42.282Z,17.09
2022-10-15T13:30:16.858Z,17.07
2022-10-15T13:32:57.189Z,17.00
2022-10-15T13:35:33.179Z,17.00
2022-10-15T13:38:04.567Z,17.03
2022-10-15T13:40:32.902Z,17.07
2022-10-15T13:43:16.544Z,17.15
2022-10-15T13:46:15.735Z,17.19
2022-10-15T13:51:13.411Z,17.28
2022-10-15T13:53:42.472Z,17.24
2022-10-15T13:56:33.238Z,17.08
2022-10-15T13:59:03.626Z,17.15
2022-10-15T14:01:34.906Z,17.07
2022-10-15T14:04:04.012Z,17.09
2022-10-15T14:06:41.767Z,17.04
2022-10-15T14:09:26.931Z,17.09
2022-10-15T14:11:59.087Z,17.09
2022-10-15T14:14:43.993Z,17.08
2022-10-15T14:17:24.000Z,17.17
2022-10-15T14:20:26.895Z,17.27
2022-10-15T14:22:54.898Z,17.66
2022-10-15T14:25:26.739Z,17.85
2022-10-15T14:27:54.059Z,17.81
2022-10-15T14:30:34.082Z,17.44
2022-10-15T14:33:01.138Z,17.27
2022-10-15T14:35:37.982Z,17.16
2022-10-15T14:38:16.957Z,17.04
2022-10-15T14:41:07.853Z,17.00
2022-10-15T14:43:38.183Z,17.04
2022-10-15T14:46:18.872Z,16.99
2022-10-15T14:48:46.166Z,16.92
2022-10-15T14:51:25.525Z,16.80
2022-10-15T14:53:54.456Z,16.73
2022-10-15T14:56:33.635Z,16.58
2022-10-15T14:59:02.167Z,16.48
2022-10-15T15:01:31.633Z,16.33
2022-10-15T15:03:59.645Z,16.24
2022-10-15T15:06:26.459Z,16.18
2022-10-15T15:08:53.398Z,16.16
2022-10-15T15:11:25.562Z,16.05
2022-10-15T15:13:55.528Z,15.99
2022-10-15T15:16:22.504Z,15.93
2022-10-15T15:18:49.456Z,15.88
2022-10-15T15:21:24.430Z,15.93
2022-10-15T15:23:51.768Z,15.88
2022-10-15T15:26:18.761Z,15.82
2022-10-15T15:28:45.761Z,15.80
2022-10-15T15:31:18.945Z,15.73
2022-10-15T15:33:47.879Z,15.67
2022-10-15T15:36:22.483Z,15.59
2022-10-15T15:38:51.279Z,15.50
2022-10-15T15:41:22.720Z,15.37
2022-10-15T15:43:52.143Z,15.25
2022-10-15T15:46:19.152Z,15.08
2022-10-15T15:48:46.136Z,14.95
2022-10-15T15:51:28.614Z,14.83
2022-10-15T15:53:57.979Z,14.71
2022-10-15T15:56:26.061Z,14.61
2022-10-15T15:58:53.109Z,14.49
2022-10-15T16:01:21.239Z,14.36
2022-10-15T16:03:48.331Z,14.25
2022-10-15T16:06:15.726Z,14.15
2022-10-15T16:08:42.687Z,14.07
2022-10-15T16:11:09.866Z,13.98
2022-10-15T16:13:36.912Z,13.91
2022-10-15T16:16:04.631Z,13.84
2022-10-15T16:18:31.587Z,13.76
2022-10-15T16:20:58.732Z,13.70
2022-10-15T16:23:25.913Z,13.64
2022-10-15T16:25:55.009Z,13.56
2022-10-15T16:28:21.983Z,13.51
2022-10-15T16:30:49.258Z,13.41
2022-10-15T16:33:16.393Z,13.36
2022-10-15T16:35:43.379Z,13.31
2022-10-15T16:38:10.444Z,13.24
2022-10-15T16:40:39.053Z,13.14
2022-10-15T16:43:05.981Z,13.04
2022-10-15T16:45:33.577Z,12.99
2022-10-15T16:48:00.487Z,12.96
2022-10-15T16:50:27.411Z,12.91
2022-10-15T16:52:54.332Z,12.86
2022-10-15T16:55:21.254Z,12.83
2022-10-15T16:57:48.161Z,12.78
2022-10-15T17:00:15.157Z,12.72
2022-10-15T17:02:42.158Z,12.71
2022-10-15T17:05:09.280Z,12.69
2022-10-15T17:07:36.231Z,12.61
2022-10-15T17:10:04.024Z,12.58
2022-10-15T17:12:30.941Z,12.55
2022-10-15T17:14:57.855Z,12.52
2022-10-15T17:17:24.887Z,12.52
2022-10-15T17:19:51.838Z,12.49
2022-10-15T17:22:18.973Z,12.41
2022-10-15T17:24:45.985Z,12.41
2022-10-15T17:27:12.927Z,12.39
2022-10-15T17:29:39.912Z,12.37
2022-10-15T17:32:06.972Z,12.30
2022-10-15T17:34:34.394Z,12.31
2022-10-15T17:37:02.138Z,12.28
2022-10-15T17:39:29.112Z,12.26
2022-10-15T17:41:56.115Z,12.25
2022-10-15T17:44:23.167Z,12.27
2022-10-15T17:46:50.607Z,12.21
2022-10-15T17:49:18.900Z,12.23
2022-10-15T17:51:47.310Z,12.21
2022-10-15T17:54:14.829Z,12.14
2022-10-15T17:56:42.312Z,12.10
2022-10-15T17:59:12.911Z,12.11
2022-10-15T18:01:57.951Z,12.10
2022-10-15T18:04:28.655Z,12.11
2022-10-15T18:06:55.876Z,12.11
2022-10-15T18:09:22.866Z,12.12
2022-10-15T18:11:49.883Z,12.14
2022-10-15T18:14:18.158Z,12.12
2022-10-15T18:16:45.967Z,12.16
2022-10-15T18:19:13.354Z,12.24
2022-10-15T18:21:40.376Z,12.31
2022-10-15T18:24:07.437Z,12.35
2022-10-15T18:26:34.437Z,12.43
2022-10-15T18:29:01.643Z,12.46
2022-10-15T18:31:28.879Z,12.45
2022-10-15T18:33:56.675Z,12.39
2022-10-15T18:36:31.506Z,12.34
2022-10-15T18:38:59.837Z,12.30
2022-10-15T18:41:38.200Z,12.26
2022-10-15T18:44:20.873Z,12.25
2022-10-15T18:46:48.015Z,12.30
2022-10-15T18:49:19.006Z,12.27
2022-10-15T18:51:49.029Z,12.22
2022-10-15T18:54:16.029Z,12.18
2022-10-15T18:56:43.106Z,12.16
2022-10-15T18:59:10.388Z,12.16
2022-10-15T19:01:44.050Z,12.14
2022-10-15T19:04:19.100Z,12.14
2022-10-15T19:06:52.007Z,12.10
2022-10-15T19:09:29.655Z,12.06
2022-10-15T19:11:58.844Z,12.02
2022-10-15T19:14:29.139Z,12.00
2022-10-15T19:16:56.739Z,12.00
2022-10-15T19:19:26.188Z,11.98
2022-10-15T19:21:53.733Z,11.93
2022-10-15T19:24:23.091Z,11.86
2022-10-15T19:26:52.717Z,11.81
2022-10-15T19:29:20.732Z,11.77
2022-10-15T19:31:49.788Z,11.76
2022-10-15T19:34:16.943Z,11.78
2022-10-15T19:36:48.545Z,11.76
2022-10-15T19:39:23.576Z,11.84
2022-10-15T19:41:53.023Z,11.88
2022-10-15T19:44:25.393Z,11.90
2022-10-15T19:46:54.683Z,11.88
2022-10-15T19:49:22.251Z,11.83
2022-10-15T19:51:50.592Z,11.82
2022-10-15T19:54:18.209Z,11.79
2022-10-15T19:56:45.504Z,11.75
2022-10-15T19:59:13.754Z,11.72
2022-10-15T20:01:40.856Z,11.72
2022-10-15T20:04:07.922Z,11.73
2022-10-15T20:06:38.610Z,11.72
2022-10-15T20:09:09.693Z,11.69
2022-10-15T20:11:37.969Z,11.68
2022-10-15T20:14:05.072Z,11.66
2022-10-15T20:16:33.455Z,11.66
2022-10-15T20:19:06.443Z,11.69
2022-10-15T20:21:33.971Z,11.70
2022-10-15T20:24:04.639Z,11.70
2022-10-15T20:26:32.825Z,11.70
2022-10-15T20:29:00.446Z,11.75
2022-10-15T20:31:32.335Z,11.76
2022-10-15T20:34:00.964Z,11.71
2022-10-15T20:36:28.706Z,11.68
2022-10-15T20:38:57.528Z,11.68
2022-10-15T20:41:24.766Z,11.67
2022-10-15T20:43:56.586Z,11.73
2022-10-15T20:46:36.944Z,11.85
2022-10-15T20:49:14.410Z,11.99
2022-10-15T20:51:45.131Z,12.06
2022-10-15T20:54:15.616Z,12.09
2022-10-15T20:56:42.840Z,12.19
2022-10-15T20:59:09.941Z,12.31
2022-10-15T21:01:37.924Z,12.33
2022-10-15T21:04:05.954Z,12.43
2022-10-15T21:06:33.347Z,12.53
2022-10-15T21:09:00.804Z,12.58
2022-10-15T21:11:28.631Z,12.63
2022-10-15T21:13:55.978Z,12.66
2022-10-15T21:16:25.895Z,12.65
2022-10-15T21:18:55.701Z,12.60
2022-10-15T21:21:22.797Z,12.55
2022-10-15T21:23:49.732Z,12.54
2022-10-15T21:26:19.276Z,12.49
2022-10-15T21:28:47.047Z,12.42
2022-10-15T21:31:18.069Z,12.40
2022-10-15T21:33:46.163Z,12.28
2022-10-15T21:36:22.875Z,12.22
2022-10-15T21:39:06.685Z,12.13
2022-10-15T21:41:38.482Z,12.07
2022-10-15T21:44:08.747Z,12.02
2022-10-15T21:46:36.452Z,11.97
2022-10-15T21:49:04.104Z,11.90
2022-10-15T21:51:33.955Z,11.84
2022-10-15T21:54:04.695Z,11.77
2022-10-15T21:56:33.321Z,11.75
2022-10-15T21:59:00.441Z,11.74
2022-10-15T22:01:35.586Z,11.74
2022-10-15T22:04:10.517Z,11.76
2022-10-15T22:06:40.252Z,11.74
2022-10-15T22:09:10.225Z,11.74
2022-10-15T22:11:41.957Z,11.71
2022-10-15T22:14:14.731Z,11.71
2022-10-15T22:16:42.752Z,11.66
2022-10-15T22:19:14.421Z,11.67
2022-10-15T22:21:42.020Z,11.73
2022-10-15T22:24:21.618Z,11.79
2022-10-15T22:26:52.827Z,11.88
2022-10-15T22:29:33.071Z,11.86
2022-10-15T22:32:02.563Z,11.77
2022-10-15T22:34:29.564Z,11.86
2022-10-15T22:36:56.468Z,11.84
2022-10-15T22:39:23.436Z,11.82
2022-10-15T22:41:50.382Z,11.78
2022-10-15T22:44:21.394Z,11.72
2022-10-15T22:46:49.755Z,11.78
2022-10-15T22:49:22.180Z,11.82
2022-10-15T22:51:50.912Z,11.76
2022-10-15T22:54:22.324Z,11.72
2022-10-15T22:56:51.373Z,11.68
2022-10-15T22:59:19.481Z,11.73
2022-10-15T23:01:46.594Z,11.70
2022-10-15T23:04:16.501Z,11.66
2022-10-15T23:06:44.235Z,11.77
2022-10-15T23:09:17.785Z,11.73
2022-10-15T23:11:45.575Z,11.66
2022-10-15T23:14:16.919Z,11.68
2022-10-15T23:16:48.254Z,11.67
2022-10-15T23:19:22.422Z,11.63
2022-10-15T23:21:56.627Z,11.65
2022-10-15T23:24:27.400Z,11.70
2022-10-15T23:26:54.534Z,11.75
2022-10-15T23:29:26.135Z,11.80
2022-10-15T23:31:55.361Z,11.96
2022-10-15T23:34:26.219Z,12.12
2022-10-15T23:36:53.999Z,12.24
2022-10-15T23:39:27.070Z,12.29
2022-10-15T23:41:55.042Z,12.27
2022-10-15T23:44:25.535Z,12.33
2022-10-15T23:46:52.827Z,12.37
2022-10-15T23:49:19.867Z,12.36
2022-10-15T23:51:46.860Z,12.41
2022-10-15T23:54:18.370Z,12.50
2022-10-15T23:56:47.148Z,12.53
2022-10-15T23:59:15.020Z,12.54
